createdAt,value
2018-11-03T00:05:02.496Z,10.07
2018-11-03T00:10:07.081Z,10.40
2018-11-03T00:15:40.076Z,9.90
2018-11-03T00:20:43.866Z,11.33
2018-11-03T00:25:48.541Z,12.40
2018-11-03T00:31:08.805Z,11.90
2018-11-03T00:36:12.944Z,11.40
2018-11-03T00:41:17.170Z,12.73
2018-11-03T00:46:28.312Z,11.47
2018-11-03T00:51:32.155Z,11.13
2018-11-03T00:56:37.378Z,11.50
2018-11-03T01:01:41.133Z,11.37
2018-11-03T01:06:44.786Z,10.97
2018-11-03T01:11:49.566Z,10.13
2018-11-03T01:16:53.144Z,10.27
2018-11-03T01:21:56.959Z,10.10
2018-11-03T01:27:00.724Z,10.17
2018-11-03T01:32:04.720Z,10.03
2018-11-03T01:37:08.299Z,9.70
2018-11-03T01:42:12.098Z,9.13
2018-11-03T01:47:15.797Z,9.27
2018-11-03T01:52:19.463Z,9.30
2018-11-03T01:57:23.397Z,10.33
2018-11-03T02:02:27.071Z,9.77
2018-11-03T02:07:30.757Z,10.03
2018-11-03T02:12:35.186Z,9.43
2018-11-03T02:17:39.371Z,10.53
2018-11-03T02:22:42.961Z,11.23
2018-11-03T02:27:46.653Z,10.33
2018-11-03T02:32:50.301Z,10.07
2018-11-03T02:37:54.143Z,9.27
2018-11-03T02:42:57.959Z,9.07
2018-11-03T02:48:01.507Z,10.30
2018-11-03T02:53:06.328Z,10.83
2018-11-03T02:58:09.938Z,10.20
2018-11-03T03:03:13.639Z,10.87
2018-11-03T03:08:17.267Z,8.13
2018-11-03T03:13:20.850Z,9.10
2018-11-03T03:18:24.502Z,9.03
2018-11-03T03:23:28.167Z,9.93
2018-11-03T03:28:32.871Z,9.73
2018-11-03T03:33:36.573Z,9.87
2018-11-03T03:38:40.150Z,9.63
2018-11-03T03:43:43.931Z,10.63
2018-11-03T03:48:47.607Z,11.07
2018-11-03T03:53:51.179Z,12.13
2018-11-03T03:58:54.911Z,10.47
2018-11-03T04:03:58.446Z,12.27
2018-11-03T04:09:02.014Z,12.23
2018-11-03T04:14:05.706Z,12.27
2018-11-03T04:19:09.524Z,12.20
2018-11-03T04:24:13.082Z,10.30
2018-11-03T04:29:17.433Z,11.23
2018-11-03T04:34:21.006Z,9.97
2018-11-03T04:39:24.647Z,8.50
2018-11-03T04:44:28.270Z,6.83
2018-11-03T04:49:34.141Z,7.70
2018-11-03T04:54:37.705Z,8.40
2018-11-03T04:59:42.763Z,8.70
2018-11-03T05:04:46.579Z,11.03
2018-11-03T05:09:50.205Z,9.60
2018-11-03T05:14:54.990Z,10.90
2018-11-03T05:19:58.654Z,10.43
2018-11-03T05:25:02.281Z,10.27
2018-11-03T05:30:06.312Z,10.70
2018-11-03T05:35:09.884Z,10.57
2018-11-03T05:40:13.663Z,9.93
2018-11-03T05:45:17.555Z,10.17
2018-11-03T05:50:21.447Z,10.37
2018-11-03T05:55:25.066Z,10.70
2018-11-03T06:00:29.603Z,10.77
2018-11-03T06:05:33.290Z,9.37
2018-11-03T06:10:39.433Z,9.73
2018-11-03T06:15:43.846Z,10.00
2018-11-03T06:20:47.880Z,11.17
2018-11-03T06:25:51.505Z,12.00
2018-11-03T06:30:55.047Z,12.33
2018-11-03T06:35:58.884Z,13.13
2018-11-03T06:41:02.503Z,14.67
2018-11-03T06:46:06.754Z,14.90
2018-11-03T06:51:12.595Z,16.30
2018-11-03T06:56:16.443Z,13.50
2018-11-03T07:01:19.990Z,13.30
2018-11-03T07:06:23.801Z,11.20
2018-11-03T07:11:27.959Z,10.40
2018-11-03T07:16:33.925Z,11.70
2018-11-03T07:21:37.707Z,11.57
2018-11-03T07:26:41.387Z,13.80
2018-11-03T07:31:46.125Z,10.83
2018-11-03T07:36:50.764Z,12.07
2018-11-03T07:41:57.510Z,17.40
2018-11-03T07:47:01.432Z,13.03
2018-11-03T07:52:05.343Z,12.27
2018-11-03T07:57:09.185Z,13.50
2018-11-03T08:02:14.336Z,15.57
2018-11-03T08:07:21.652Z,12.70
2018-11-03T08:12:25.295Z,11.10
2018-11-03T08:17:34.030Z,11.53
2018-11-03T08:22:37.663Z,15.30
2018-11-03T08:27:41.391Z,16.00
2018-11-03T08:32:51.628Z,13.17
2018-11-03T08:37:55.278Z,15.30
2018-11-03T08:43:02.209Z,17.93
2018-11-03T08:48:06.706Z,14.10
2018-11-03T08:53:10.252Z,11.33
2018-11-03T08:58:16.171Z,13.13
2018-11-03T09:03:21.012Z,9.73
2018-11-03T09:08:24.554Z,11.07
2018-11-03T09:13:28.126Z,9.77
2018-11-03T09:18:31.659Z,10.50
2018-11-03T09:23:35.346Z,10.37
2018-11-03T09:28:41.128Z,8.53
2018-11-03T09:33:44.758Z,9.93
2018-11-03T09:38:48.483Z,9.67
2018-11-03T09:43:52.129Z,8.53
2018-11-03T09:48:55.933Z,8.60
2018-11-03T09:53:59.501Z,8.97
2018-11-03T09:59:03.430Z,8.60
2018-11-03T10:04:09.741Z,8.20
2018-11-03T10:09:15.459Z,9.20
2018-11-03T10:14:19.287Z,9.03
2018-11-03T10:19:26.497Z,9.10
2018-11-03T10:24:32.714Z,8.83
2018-11-03T10:29:43.250Z,7.73
2018-11-03T10:34:47.066Z,8.80
2018-11-03T10:39:52.853Z,9.20
2018-11-03T10:44:56.844Z,8.37
2018-11-03T10:50:00.623Z,8.27
2018-11-03T10:55:04.347Z,7.97
2018-11-03T11:00:19.091Z,10.97
2018-11-03T11:05:27.962Z,13.33
2018-11-03T11:12:41.200Z,9.70
2018-11-03T11:17:46.160Z,9.63
2018-11-03T11:22:49.809Z,8.90
2018-11-03T11:27:53.442Z,9.70
2018-11-03T11:32:57.221Z,10.07
2018-11-03T11:38:00.990Z,10.33
2018-11-03T11:43:04.785Z,9.93
2018-11-03T11:48:08.810Z,9.13
2018-11-03T11:53:12.566Z,9.90
2018-11-03T11:58:16.253Z,9.37
2018-11-03T12:03:20.129Z,8.20
2018-11-03T12:08:23.683Z,9.43
2018-11-03T12:13:27.247Z,8.13
2018-11-03T12:18:34.314Z,8.70
2018-11-03T12:23:39.897Z,7.80
2018-11-03T12:28:43.495Z,7.70
2018-11-03T12:33:47.239Z,6.87
2018-11-03T12:38:50.936Z,6.80
2018-11-03T12:43:55.611Z,5.90
2018-11-03T12:48:59.170Z,7.10
2018-11-03T12:54:02.915Z,6.20
2018-11-03T12:59:07.605Z,6.23
2018-11-03T13:04:11.210Z,6.33
2018-11-03T13:09:14.712Z,6.30
2018-11-03T13:14:18.401Z,6.23
2018-11-03T13:19:21.932Z,6.47
2018-11-03T13:24:25.478Z,7.03
2018-11-03T13:29:29.046Z,8.20
2018-11-03T13:34:32.612Z,7.87
2018-11-03T13:39:36.278Z,7.47
2018-11-03T13:44:39.844Z,14.40
2018-11-03T13:49:43.507Z,8.67
2018-11-03T13:54:47.278Z,7.60
2018-11-03T13:59:50.944Z,10.53
2018-11-03T14:04:54.585Z,10.63
2018-11-03T14:09:58.246Z,9.10
2018-11-03T14:15:01.819Z,9.17
2018-11-03T14:20:07.523Z,7.57
2018-11-03T14:25:12.874Z,6.40
2018-11-03T14:30:16.506Z,7.47
2018-11-03T14:35:20.066Z,6.87
2018-11-03T14:40:24.676Z,7.43
2018-11-03T14:45:28.522Z,6.90
2018-11-03T14:50:33.194Z,6.37
2018-11-03T14:55:36.842Z,7.80
2018-11-03T15:00:40.801Z,7.93
2018-11-03T15:05:45.467Z,7.47
2018-11-03T15:10:49.042Z,6.97
2018-11-03T15:15:52.590Z,6.47
2018-11-03T15:20:56.174Z,6.30
2018-11-03T15:25:59.866Z,6.60
2018-11-03T15:31:03.412Z,6.10
2018-11-03T15:36:07.043Z,6.90
2018-11-03T15:41:10.744Z,10.37
2018-11-03T15:46:14.326Z,9.57
2018-11-03T15:51:17.856Z,9.07
2018-11-03T15:56:21.613Z,8.27
2018-11-03T16:01:25.494Z,8.17
2018-11-03T16:06:29.063Z,7.40
2018-11-03T16:11:32.726Z,7.23
2018-11-03T16:16:36.496Z,7.47
2018-11-03T16:21:40.166Z,7.40
2018-11-03T16:26:43.791Z,7.93
2018-11-03T16:31:47.365Z,9.37
2018-11-03T16:36:51.037Z,9.33
2018-11-03T16:41:54.688Z,10.30
2018-11-03T16:46:59.399Z,10.27
2018-11-03T16:52:03.745Z,10.57
2018-11-03T16:57:11.243Z,9.90
2018-11-03T17:02:14.950Z,9.70
2018-11-03T17:07:18.585Z,12.87
2018-11-03T17:12:22.227Z,13.53
2018-11-03T17:17:25.793Z,12.47
2018-11-03T17:22:29.554Z,13.63
2018-11-03T17:27:33.350Z,14.60
2018-11-03T17:32:37.192Z,14.60
2018-11-03T17:37:40.931Z,13.70
2018-11-03T17:42:44.601Z,13.37
2018-11-03T17:47:48.406Z,13.10
2018-11-03T17:52:52.034Z,13.03
2018-11-03T17:57:55.724Z,11.93
2018-11-03T18:02:59.291Z,12.83
2018-11-03T18:08:02.979Z,10.33
2018-11-03T18:13:06.551Z,10.90
2018-11-03T18:18:13.346Z,14.60
2018-11-03T18:23:19.477Z,13.70
2018-11-03T18:28:23.088Z,17.40
2018-11-03T18:33:26.904Z,16.30
2018-11-03T18:38:30.854Z,16.93
2018-11-03T18:43:34.674Z,17.60
2018-11-03T18:48:41.449Z,19.17
2018-11-03T18:53:45.437Z,26.37
2018-11-03T18:58:51.138Z,40.33
2018-11-03T19:03:54.995Z,26.40
2018-11-03T19:08:59.695Z,32.37
2018-11-03T19:19:54.171Z,21.57
2018-11-03T19:24:58.275Z,22.00
2018-11-03T19:30:09.941Z,25.57
2018-11-03T19:35:13.805Z,22.27
2018-11-03T19:40:22.598Z,17.53
2018-11-03T19:45:28.136Z,15.90
2018-11-03T19:50:31.906Z,13.20
2018-11-03T19:55:36.871Z,14.33
2018-11-03T20:00:43.996Z,17.27
2018-11-03T20:05:48.566Z,17.70
2018-11-03T20:10:52.460Z,12.80
2018-11-03T20:15:56.135Z,13.53
2018-11-03T20:21:01.421Z,12.60
2018-11-03T20:26:07.086Z,17.07
2018-11-03T20:31:11.623Z,14.90
2018-11-03T20:36:21.503Z,11.90
2018-11-03T20:41:25.227Z,11.70
2018-11-03T20:46:29.054Z,12.13
2018-11-03T20:51:32.769Z,13.60
2018-11-03T20:56:38.860Z,16.17
2018-11-03T21:01:44.594Z,16.67
2018-11-03T21:06:51.893Z,16.70
2018-11-03T21:11:56.701Z,17.10
2018-11-03T21:17:00.472Z,14.90
2018-11-03T21:22:06.923Z,13.57
2018-11-03T21:27:11.699Z,13.73
2018-11-03T21:32:15.403Z,13.70
2018-11-03T21:37:21.606Z,13.50
2018-11-03T21:42:26.363Z,14.63
2018-11-03T21:47:30.161Z,15.33
2018-11-03T21:52:33.845Z,14.80
2018-11-03T21:57:41.115Z,15.03
2018-11-03T22:02:45.118Z,20.67
2018-11-03T22:07:48.822Z,22.37
2018-11-03T22:12:52.458Z,25.77
2018-11-03T22:17:56.298Z,21.43
2018-11-03T22:22:59.967Z,16.70
2018-11-03T22:28:05.000Z,18.63
2018-11-03T22:33:08.652Z,19.07
2018-11-03T22:38:12.317Z,17.93
2018-11-03T22:43:16.148Z,19.43
2018-11-03T22:48:19.918Z,19.20
2018-11-03T22:53:26.050Z,17.87
2018-11-03T22:58:29.607Z,19.30
2018-11-03T23:03:33.315Z,21.07
2018-11-03T23:08:36.990Z,17.70
2018-11-03T23:13:41.969Z,17.87
2018-11-03T23:18:45.552Z,17.87
2018-11-03T23:23:50.299Z,16.13
2018-11-03T23:28:56.648Z,14.63
2018-11-03T23:34:00.439Z,15.17
2018-11-03T23:39:05.443Z,14.50
2018-11-03T23:44:12.735Z,14.57
2018-11-03T23:49:16.286Z,12.30
2018-11-03T23:54:20.820Z,13.50
2018-11-03T23:59:26.890Z,15.07
